sensor_id;sensor_type;location;lat;lon;timestamp;P1;durP1;ratioP1;P2;durP2;ratioP2
6941;SDS011;3510;43.200;27.920;2023-08-08T15:09:22;1.10;;;1.10;;
6941;SDS011;3510;43.200;27.920;2023-08-08T15:11:56;1.00;;;1.00;;
6941;SDS011;3510;43.200;27.920;2023-08-08T15:14:22;1.90;;;1.40;;
6941;SDS011;3510;43.200;27.920;2023-08-08T15:16:51;1.80;;;1.65;;
6941;SDS011;3510;43.200;27.920;2023-08-08T15:24:15;1.73;;;1.63;;
6941;SDS011;3510;43.200;27.920;2023-08-08T15:26:42;1.55;;;1.45;;
6941;SDS011;3510;43.200;27.920;2023-08-08T15:29:10;1.30;;;1.30;;
6941;SDS011;3510;43.200;27.920;2023-08-08T15:31:37;2.25;;;1.58;;
6941;SDS011;3510;43.200;27.920;2023-08-08T15:46:22;1.40;;;1.40;;
6941;SDS011;3510;43.200;27.920;2023-08-08T15:48:53;1.52;;;1.48;;
6941;SDS011;3510;43.200;27.920;2023-08-08T15:51:20;1.52;;;1.42;;
6941;SDS011;3510;43.200;27.920;2023-08-08T15:53:46;1.80;;;1.70;;
6941;SDS011;3510;43.200;27.920;2023-08-08T15:56:13;4.63;;;1.42;;
6941;SDS011;3510;43.200;27.920;2023-08-08T15:58:40;1.60;;;1.50;;
6941;SDS011;3510;43.200;27.920;2023-08-08T16:01:20;2.83;;;1.73;;
6941;SDS011;3510;43.200;27.920;2023-08-08T16:03:47;2.00;;;1.90;;
6941;SDS011;3510;43.200;27.920;2023-08-08T16:06:13;2.28;;;1.77;;
6941;SDS011;3510;43.200;27.920;2023-08-08T16:08:54;1.48;;;1.48;;
6941;SDS011;3510;43.200;27.920;2023-08-08T16:11:21;1.80;;;1.70;;
6941;SDS011;3510;43.200;27.920;2023-08-08T16:13:47;1.90;;;1.80;;
6941;SDS011;3510;43.200;27.920;2023-08-08T16:16:14;2.25;;;2.15;;
6941;SDS011;3510;43.200;27.920;2023-08-08T16:18:54;1.67;;;1.60;;
6941;SDS011;3510;43.200;27.920;2023-08-08T16:21:21;1.67;;;1.63;;
6941;SDS011;3510;43.200;27.920;2023-08-08T16:24:02;1.42;;;1.33;;
6941;SDS011;3510;43.200;27.920;2023-08-08T16:26:34;1.50;;;1.50;;
6941;SDS011;3510;43.200;27.920;2023-08-08T16:29:01;1.70;;;1.63;;
6941;SDS011;3510;43.200;27.920;2023-08-08T16:31:28;1.50;;;1.50;;
6941;SDS011;3510;43.200;27.920;2023-08-08T16:33:56;2.13;;;2.03;;
6941;SDS011;3510;43.200;27.920;2023-08-08T16:36:24;2.60;;;2.45;;
6941;SDS011;3510;43.200;27.920;2023-08-08T16:39:01;2.00;;;1.90;;
6941;SDS011;3510;43.200;27.920;2023-08-08T16:41:42;1.75;;;1.65;;
6941;SDS011;3510;43.200;27.920;2023-08-08T16:44:22;2.13;;;1.92;;
6941;SDS011;3510;43.200;27.920;2023-08-08T16:47:03;2.75;;;2.55;;
6941;SDS011;3510;43.200;27.920;2023-08-08T17:11:42;2.72;;;2.53;;
6941;SDS011;3510;43.200;27.920;2023-08-08T17:14:22;2.53;;;2.33;;
6941;SDS011;3510;43.200;27.920;2023-08-08T17:17:03;3.58;;;2.70;;
6941;SDS011;3510;43.200;27.920;2023-08-08T17:19:30;2.80;;;2.50;;
6941;SDS011;3510;43.200;27.920;2023-08-08T17:21:57;2.60;;;2.45;;
6941;SDS011;3510;43.200;27.920;2023-08-08T17:24:37;2.55;;;2.30;;
6941;SDS011;3510;43.200;27.920;2023-08-08T17:33:02;3.35;;;3.08;;
6941;SDS011;3510;43.200;27.920;2023-08-08T17:35:29;3.88;;;3.00;;
6941;SDS011;3510;43.200;27.920;2023-08-08T17:37:59;4.65;;;3.72;;
6941;SDS011;3510;43.200;27.920;2023-08-08T17:40:26;4.00;;;3.70;;
6941;SDS011;3510;43.200;27.920;2023-08-08T17:42:53;3.13;;;2.90;;
6941;SDS011;3510;43.200;27.920;2023-08-08T17:45:20;3.50;;;2.80;;
6941;SDS011;3510;43.200;27.920;2023-08-08T17:47:47;2.90;;;2.70;;
6941;SDS011;3510;43.200;27.920;2023-08-08T17:50:15;3.03;;;2.78;;
6941;SDS011;3510;43.200;27.920;2023-08-08T17:52:42;3.10;;;2.90;;
6941;SDS011;3510;43.200;27.920;2023-08-08T17:55:08;3.03;;;2.80;;
6941;SDS011;3510;43.200;27.920;2023-08-08T17:57:35;2.77;;;2.67;;
6941;SDS011;3510;43.200;27.920;2023-08-08T18:00:06;3.00;;;2.90;;
6941;SDS011;3510;43.200;27.920;2023-08-08T18:02:34;3.42;;;3.13;;
6941;SDS011;3510;43.200;27.920;2023-08-08T18:05:02;5.03;;;3.60;;
6941;SDS011;3510;43.200;27.920;2023-08-08T18:20:10;3.78;;;3.58;;
6941;SDS011;3510;43.200;27.920;2023-08-08T18:22:51;4.20;;;3.80;;
6941;SDS011;3510;43.200;27.920;2023-08-08T18:25:32;5.03;;;4.63;;
6941;SDS011;3510;43.200;27.920;2023-08-08T18:27:58;4.32;;;4.03;;
6941;SDS011;3510;43.200;27.920;2023-08-08T18:30:25;4.85;;;4.55;;
6941;SDS011;3510;43.200;27.920;2023-08-08T18:57:38;5.30;;;4.80;;
6941;SDS011;3510;43.200;27.920;2023-08-08T19:02:37;5.28;;;4.97;;
6941;SDS011;3510;43.200;27.920;2023-08-08T19:05:03;5.50;;;5.10;;
6941;SDS011;3510;43.200;27.920;2023-08-08T19:07:31;5.30;;;4.90;;
6941;SDS011;3510;43.200;27.920;2023-08-08T19:09:57;5.93;;;5.63;;
6941;SDS011;3510;43.200;27.920;2023-08-08T19:31:26;7.15;;;6.75;;
6941;SDS011;3510;43.200;27.920;2023-08-08T19:33:53;7.72;;;7.20;;
6941;SDS011;3510;43.200;27.920;2023-08-08T19:36:20;7.30;;;6.90;;
6941;SDS011;3510;43.200;27.920;2023-08-08T19:38:48;8.70;;;8.07;;
6941;SDS011;3510;43.200;27.920;2023-08-08T19:41:36;6.82;;;6.53;;
6941;SDS011;3510;43.200;27.920;2023-08-08T19:44:17;7.00;;;6.60;;
6941;SDS011;3510;43.200;27.920;2023-08-08T19:46:45;6.78;;;6.38;;
6941;SDS011;3510;43.200;27.920;2023-08-08T19:49:11;6.20;;;5.80;;
6941;SDS011;3510;43.200;27.920;2023-08-08T19:51:41;6.73;;;6.23;;
6941;SDS011;3510;43.200;27.920;2023-08-08T19:54:08;6.28;;;5.93;;
6941;SDS011;3510;43.200;27.920;2023-08-08T19:56:37;6.68;;;6.18;;
6941;SDS011;3510;43.200;27.920;2023-08-08T19:59:17;7.00;;;6.03;;
6941;SDS011;3510;43.200;27.920;2023-08-08T20:05:10;6.43;;;6.13;;
6941;SDS011;3510;43.200;27.920;2023-08-08T20:07:36;5.95;;;5.65;;
6941;SDS011;3510;43.200;27.920;2023-08-08T20:10:17;6.20;;;5.80;;
6941;SDS011;3510;43.200;27.920;2023-08-08T20:12:44;6.53;;;6.05;;
6941;SDS011;3510;43.200;27.920;2023-08-08T20:15:10;6.80;;;6.40;;
6941;SDS011;3510;43.200;27.920;2023-08-08T20:17:51;8.27;;;7.68;;
6941;SDS011;3510;43.200;27.920;2023-08-08T20:42:02;7.80;;;7.30;;
6941;SDS011;3510;43.200;27.920;2023-08-08T20:44:29;6.50;;;6.10;;
6941;SDS011;3510;43.200;27.920;2023-08-08T20:47:10;8.18;;;7.00;;
6941;SDS011;3510;43.200;27.920;2023-08-08T20:49:51;7.40;;;6.90;;
6941;SDS011;3510;43.200;27.920;2023-08-08T20:52:17;5.75;;;5.45;;
6941;SDS011;3510;43.200;27.920;2023-08-08T20:54:59;5.78;;;5.38;;
6941;SDS011;3510;43.200;27.920;2023-08-08T20:57:27;5.00;;;4.50;;
6941;SDS011;3510;43.200;27.920;2023-08-08T21:00:08;5.95;;;5.55;;
6941;SDS011;3510;43.200;27.920;2023-08-08T21:02:35;4.77;;;4.57;;
6941;SDS011;3510;43.200;27.920;2023-08-08T21:05:15;3.83;;;3.63;;
6941;SDS011;3510;43.200;27.920;2023-08-08T21:07:56;4.30;;;3.97;;
6941;SDS011;3510;43.200;27.920;2023-08-08T21:10:23;4.03;;;3.83;;
6941;SDS011;3510;43.200;27.920;2023-08-08T21:22:07;3.30;;;3.10;;
6941;SDS011;3510;43.200;27.920;2023-08-08T21:24:33;3.15;;;2.95;;
6941;SDS011;3510;43.200;27.920;2023-08-08T21:27:14;2.90;;;2.70;;
6941;SDS011;3510;43.200;27.920;2023-08-08T21:29:42;2.70;;;2.60;;
6941;SDS011;3510;43.200;27.920;2023-08-08T21:32:09;3.33;;;3.10;;
6941;SDS011;3510;43.200;27.920;2023-08-08T21:34:36;2.97;;;2.87;;
6941;SDS011;3510;43.200;27.920;2023-08-08T21:46:06;2.50;;;2.30;;
6941;SDS011;3510;43.200;27.920;2023-08-08T21:48:33;2.40;;;2.30;;
6941;SDS011;3510;43.200;27.920;2023-08-08T21:51:00;2.25;;;2.15;;
6941;SDS011;3510;43.200;27.920;2023-08-08T21:53:27;2.40;;;2.20;;
6941;SDS011;3510;43.200;27.920;2023-08-08T21:55:53;2.60;;;2.40;;
6941;SDS011;3510;43.200;27.920;2023-08-08T21:58:35;2.38;;;2.28;;
6941;SDS011;3510;43.200;27.920;2023-08-08T22:01:02;3.20;;;2.70;;
6941;SDS011;3510;43.200;27.920;2023-08-08T22:15:57;2.17;;;2.08;;
6941;SDS011;3510;43.200;27.920;2023-08-08T22:18:25;1.98;;;1.88;;
6941;SDS011;3510;43.200;27.920;2023-08-08T22:21:06;1.85;;;1.75;;
6941;SDS011;3510;43.200;27.920;2023-08-08T22:23:47;1.90;;;1.80;;
6941;SDS011;3510;43.200;27.920;2023-08-08T22:26:13;1.88;;;1.77;;
6941;SDS011;3510;43.200;27.920;2023-08-08T23:15:31;0.93;;;0.93;;
6941;SDS011;3510;43.200;27.920;2023-08-08T23:18:12;1.17;;;1.15;;
6941;SDS011;3510;43.200;27.920;2023-08-08T23:20:39;1.38;;;1.38;;
6941;SDS011;3510;43.200;27.920;2023-08-08T23:23:05;2.40;;;1.30;;
6941;SDS011;3510;43.200;27.920;2023-08-08T23:25:46;3.78;;;1.40;;
6941;SDS011;3510;43.200;27.920;2023-08-08T23:28:27;1.30;;;1.20;;
6941;SDS011;3510;43.200;27.920;2023-08-08T23:40:11;1.03;;;1.03;;
6941;SDS011;3510;43.200;27.920;2023-08-08T23:42:51;1.10;;;1.10;;
6941;SDS011;3510;43.200;27.920;2023-08-08T23:45:34;1.40;;;1.20;;
6941;SDS011;3510;43.200;27.920;2023-08-08T23:48:15;1.10;;;1.10;;
6941;SDS011;3510;43.200;27.920;2023-08-08T23:50:42;1.20;;;1.20;;
